メインページ
METAR-TAF:

METAR-TAF

空港 :

ポワンタピートル, グアドループ

ポワンタピートル国際空港

緯度: 16-16N, 経度: 061-31W, 海抜: 11m

現時点の気象観測

当レポートは20分前の23:00(UTC)に作成
の風 8kt
気温 27°C
湿度 70%
気圧 1016 hPa
視程10km以上
高度5800ftの千切れ雲あり

METAR: TFFR 272300Z AUTO 09008KT 9999 BKN058 27/21 Q1016 NOSIG

時間: 19:20 (23:20 UTC)

予報

当レポートは6時間20分前の17:00(UTC)に作成
予報は27日の 18時(UTC)から 28日の 18時(UTC)まで有効
東/南東の風 10kt
視程10km以上
高度3000ftの雲は散在している
27日の 23時(UTC)から 28日の 01時(UTC)まで徐々に
変向風 2kt
28日の 03時(UTC)から 28日の 12時(UTC)まで一時的に
視程: 4000m
高度1800ftの雲は散在している, 塔状積雲.
にわか雨
確率 30% :
28日の 09時(UTC)から 28日の 12時(UTC)まで一時的に
視程: 1000m
高度1500ftの千切れ雲あり, 積乱雲.
激しい雷雨, 雨

TAF: TFFR 271700Z 2718/2818 12010KT 9999 SCT030 BECMG 2723/2801 VRB02KT TEMPO 2803/2812 4000 SHRA SCT018TCU PROB30 TEMPO 2809/2812 1000 TSRA BKN015CB

4,000以上の空港の気象観測と天気予報(METAR報とTAF報)

利用可能な観測所は地図上に黄色い丸と赤い丸で示す。

丸の上にカーソルを重ねると観測所名を参照できる。

次にクリックすると気象観測と天気予報を参照できる。

マップの切り替え:黒色「×」印の緑ボタンをクリックして拡大、「-」印の緑ボタンをクリックして縮小、緑色の三角印をクリックして隣りの地図に切り替え


METAR-TAF: